Ellsworth, NE (69340)

7:13 AM MDT on July 12, 2014 (GMT -0600)
Alliance Municipal (KAIA) Elev 3930 ft | 42.06 °N, 102.80 °W | Change Station

Current weather conditions updated 10 minutes ago

Overcast
Overcast
62 °F
Feels Like 62 °F
N
7
Wind Variable Wind from North

Today is forecast to be Cooler than yesterday.

Today
High -- | Low -- °F
--% Chance of Precip.
Yesterday
High -- | Low -- °F
Precip. -- in
5:24 AM 8:25 PM
Full, 100% visible
Pressure 30.17 in
Visibility 10.0 miles
Clouds Overcast 1500 ft
Dew Point 58 °F
Humidity 86%
Rainfall 0.00 in
Snow Depth Not available.
UV 0 out of 12
Pollen 3.30 out of 12
Air Quality Not available.
Flu Activity Sporadic
SPECI KAIA 121303Z AUTO 01006KT 10SM OVC015 17/14 A3017 RMK AO2 T01670144 $

More Conditions Fewer Conditions

Pressure 30.17 in
Visibility 10.0 miles
Clouds Overcast 1500 ft
Dew Point 58 °F
Humidity 86%
Rainfall 0.00 in
Snow Depth Not available.
UV 0 out of 12
Pollen 3.30 out of 12
Air Quality Not available.
Flu Activity Sporadic
SPECI KAIA 121303Z AUTO 01006KT 10SM OVC015 17/14 A3017 RMK AO2 T01670144 $

More Conditions Fewer Conditions

10-Day Weather Forecast

Almanac

Astronomy

Jul. 12, 2014 Rise Set
Actual Time 5:24 AM MDT 8:25 PM MDT
Civil Twilight 4:50 AM MDT 8:59 PM MDT
Nautical Twilight 4:07 AM MDT 9:42 PM MDT
Astronomical Twilight 3:17 AM MDT 10:32 PM MDT
Moon 8:27 PM MDT 5:48 AM MDT
Length of Visible Light 16h 08m
Length of Day
15h 01m
Tomorrow will be 1m 21s shorter.
Full, 100% of the Moon is Illuminated
Today
Full
Jul 18
Last Quarter
Jul 26
New
Aug 3
First Quarter
Aug 10
Full

Today's Extremes

State Highs State Lows

Community

WunderPhotos

Upload Photos

1,732,816 photos uploaded!

WunderBlogs® & News

Nearby

Snow Depth

Station Depth Elevation
No new snow has been reported.

Earthquake Activity

City Distance Mag. Time & Date
No recent earthquake activity has been reported nearby.
Minimum magnitude displayed is 2.5.

Coastal Water Temperatures

Place Temperature
No Stations Reporting

Nearby Weather Stations

There are no personal weather stations in this area.